sensor_id;sensor_type;location;lat;lon;timestamp;temperature;humidity
11965;DHT22;6042;41.326;19.826;2022-12-05T00:02:06;13.00;99.90
11965;DHT22;6042;41.326;19.826;2022-12-05T00:04:35;13.00;99.90
11965;DHT22;6042;41.326;19.826;2022-12-05T00:07:05;13.00;99.90
11965;DHT22;6042;41.326;19.826;2022-12-05T00:09:33;12.90;99.90
11965;DHT22;6042;41.326;19.826;2022-12-05T00:12:02;12.90;99.90
11965;DHT22;6042;41.326;19.826;2022-12-05T00:14:31;12.80;99.90
11965;DHT22;6042;41.326;19.826;2022-12-05T00:16:59;12.80;99.90
11965;DHT22;6042;41.326;19.826;2022-12-05T00:19:29;12.80;99.90
11965;DHT22;6042;41.326;19.826;2022-12-05T00:21:58;12.70;99.90
11965;DHT22;6042;41.326;19.826;2022-12-05T00:24:27;12.70;99.90
11965;DHT22;6042;41.326;19.826;2022-12-05T00:26:57;12.70;99.90
11965;DHT22;6042;41.326;19.826;2022-12-05T00:29:26;12.60;99.90
11965;DHT22;6042;41.326;19.826;2022-12-05T00:31:54;12.60;99.90
11965;DHT22;6042;41.326;19.826;2022-12-05T00:34:23;12.60;99.90
11965;DHT22;6042;41.326;19.826;2022-12-05T00:36:52;12.50;99.90
11965;DHT22;6042;41.326;19.826;2022-12-05T00:39:20;12.30;99.90
11965;DHT22;6042;41.326;19.826;2022-12-05T00:41:51;12.20;99.90
11965;DHT22;6042;41.326;19.826;2022-12-05T00:44:20;12.20;99.90
11965;DHT22;6042;41.326;19.826;2022-12-05T00:46:48;12.10;99.90
11965;DHT22;6042;41.326;19.826;2022-12-05T00:49:17;11.90;99.90
11965;DHT22;6042;41.326;19.826;2022-12-05T00:51:46;11.90;99.90
11965;DHT22;6042;41.326;19.826;2022-12-05T00:54:15;11.90;99.90
11965;DHT22;6042;41.326;19.826;2022-12-05T00:56:44;12.00;99.90
11965;DHT22;6042;41.326;19.826;2022-12-05T00:59:16;12.00;99.90
11965;DHT22;6042;41.326;19.826;2022-12-05T01:01:45;12.00;99.90
11965;DHT22;6042;41.326;19.826;2022-12-05T01:04:16;12.00;99.90
11965;DHT22;6042;41.326;19.826;2022-12-05T01:06:45;12.10;99.90
11965;DHT22;6042;41.326;19.826;2022-12-05T01:09:17;12.00;99.90
11965;DHT22;6042;41.326;19.826;2022-12-05T01:11:46;12.00;99.90
11965;DHT22;6042;41.326;19.826;2022-12-05T01:14:19;12.00;99.90
11965;DHT22;6042;41.326;19.826;2022-12-05T01:16:49;11.90;99.90
11965;DHT22;6042;41.326;19.826;2022-12-05T01:19:21;11.90;99.90
11965;DHT22;6042;41.326;19.826;2022-12-05T01:21:50;11.90;99.90
11965;DHT22;6042;41.326;19.826;2022-12-05T01:24:20;11.90;99.90
11965;DHT22;6042;41.326;19.826;2022-12-05T01:26:49;11.80;99.90
11965;DHT22;6042;41.326;19.826;2022-12-05T01:29:20;11.70;99.90
11965;DHT22;6042;41.326;19.826;2022-12-05T01:31:49;11.70;99.90
11965;DHT22;6042;41.326;19.826;2022-12-05T01:34:18;11.70;99.90
11965;DHT22;6042;41.326;19.826;2022-12-05T01:36:47;11.70;99.90
11965;DHT22;6042;41.326;19.826;2022-12-05T01:39:16;11.60;99.90
11965;DHT22;6042;41.326;19.826;2022-12-05T01:41:47;11.50;99.90
11965;DHT22;6042;41.326;19.826;2022-12-05T01:47:24;11.40;99.90
11965;DHT22;6042;41.326;19.826;2022-12-05T01:49:56;11.40;99.90
11965;DHT22;6042;41.326;19.826;2022-12-05T01:52:28;11.30;99.90
11965;DHT22;6042;41.326;19.826;2022-12-05T01:55:03;11.30;99.90
11965;DHT22;6042;41.326;19.826;2022-12-05T01:57:32;11.40;99.90
11965;DHT22;6042;41.326;19.826;2022-12-05T02:00:04;11.40;99.90
11965;DHT22;6042;41.326;19.826;2022-12-05T02:02:41;11.40;99.90
11965;DHT22;6042;41.326;19.826;2022-12-05T02:05:14;11.40;99.90
11965;DHT22;6042;41.326;19.826;2022-12-05T02:07:44;11.40;99.90
11965;DHT22;6042;41.326;19.826;2022-12-05T02:10:16;11.40;99.90
11965;DHT22;6042;41.326;19.826;2022-12-05T02:12:45;11.30;99.90
11965;DHT22;6042;41.326;19.826;2022-12-05T02:15:28;11.30;99.90
11965;DHT22;6042;41.326;19.826;2022-12-05T02:18:12;11.30;99.90
11965;DHT22;6042;41.326;19.826;2022-12-05T02:20:53;11.30;99.90
11965;DHT22;6042;41.326;19.826;2022-12-05T02:23:31;11.20;99.90
11965;DHT22;6042;41.326;19.826;2022-12-05T02:26:37;11.20;99.90
11965;DHT22;6042;41.326;19.826;2022-12-05T02:29:27;11.00;99.90
11965;DHT22;6042;41.326;19.826;2022-12-05T02:32:03;11.00;99.90
11965;DHT22;6042;41.326;19.826;2022-12-05T02:34:38;11.00;99.90
11965;DHT22;6042;41.326;19.826;2022-12-05T02:37:13;11.00;99.90
11965;DHT22;6042;41.326;19.826;2022-12-05T02:39:49;11.00;99.90
11965;DHT22;6042;41.326;19.826;2022-12-05T02:42:24;10.90;99.90
11965;DHT22;6042;41.326;19.826;2022-12-05T02:45:00;10.90;99.90
11965;DHT22;6042;41.326;19.826;2022-12-05T02:47:48;10.80;99.90
11965;DHT22;6042;41.326;19.826;2022-12-05T02:50:21;10.90;99.90
11965;DHT22;6042;41.326;19.826;2022-12-05T02:52:53;10.80;99.90
11965;DHT22;6042;41.326;19.826;2022-12-05T02:55:26;10.70;99.90
11965;DHT22;6042;41.326;19.826;2022-12-05T02:58:00;10.70;99.90
11965;DHT22;6042;41.326;19.826;2022-12-05T03:00:30;10.70;99.90
11965;DHT22;6042;41.326;19.826;2022-12-05T03:03:00;10.70;99.90
11965;DHT22;6042;41.326;19.826;2022-12-05T03:05:35;10.80;99.90
11965;DHT22;6042;41.326;19.826;2022-12-05T03:08:09;10.80;99.90
11965;DHT22;6042;41.326;19.826;2022-12-05T03:10:41;10.80;99.90
11965;DHT22;6042;41.326;19.826;2022-12-05T03:13:15;10.80;99.90
11965;DHT22;6042;41.326;19.826;2022-12-05T03:15:48;10.90;99.90
11965;DHT22;6042;41.326;19.826;2022-12-05T03:18:22;10.90;99.90
11965;DHT22;6042;41.326;19.826;2022-12-05T03:20:56;11.00;99.90
11965;DHT22;6042;41.326;19.826;2022-12-05T03:23:30;10.90;99.90
11965;DHT22;6042;41.326;19.826;2022-12-05T03:26:04;11.00;99.90
11965;DHT22;6042;41.326;19.826;2022-12-05T03:28:49;11.00;99.90
11965;DHT22;6042;41.326;19.826;2022-12-05T03:31:25;11.10;99.90
11965;DHT22;6042;41.326;19.826;2022-12-05T03:33:58;11.10;99.90
11965;DHT22;6042;41.326;19.826;2022-12-05T03:36:33;11.20;99.90
11965;DHT22;6042;41.326;19.826;2022-12-05T03:39:09;11.30;99.90
11965;DHT22;6042;41.326;19.826;2022-12-05T03:41:41;11.30;99.90
11965;DHT22;6042;41.326;19.826;2022-12-05T03:44:16;11.30;99.90
11965;DHT22;6042;41.326;19.826;2022-12-05T03:46:48;11.30;99.90
11965;DHT22;6042;41.326;19.826;2022-12-05T03:49:25;11.40;99.90
11965;DHT22;6042;41.326;19.826;2022-12-05T03:52:05;11.40;99.90
11965;DHT22;6042;41.326;19.826;2022-12-05T03:54:38;11.50;99.90
11965;DHT22;6042;41.326;19.826;2022-12-05T03:57:14;11.50;99.90
11965;DHT22;6042;41.326;19.826;2022-12-05T03:59:47;11.60;99.90
11965;DHT22;6042;41.326;19.826;2022-12-05T04:02:23;11.50;99.90
11965;DHT22;6042;41.326;19.826;2022-12-05T04:04:59;11.60;99.90
11965;DHT22;6042;41.326;19.826;2022-12-05T04:07:31;11.60;99.90
11965;DHT22;6042;41.326;19.826;2022-12-05T04:10:04;11.60;99.90
11965;DHT22;6042;41.326;19.826;2022-12-05T04:12:34;11.60;99.90
11965;DHT22;6042;41.326;19.826;2022-12-05T04:15:06;11.60;99.90
11965;DHT22;6042;41.326;19.826;2022-12-05T04:17:39;11.60;99.90
11965;DHT22;6042;41.326;19.826;2022-12-05T04:20:13;11.50;99.90
11965;DHT22;6042;41.326;19.826;2022-12-05T04:23:01;11.50;99.90
11965;DHT22;6042;41.326;19.826;2022-12-05T04:25:36;11.40;99.90
11965;DHT22;6042;41.326;19.826;2022-12-05T04:28:19;11.40;99.90
11965;DHT22;6042;41.326;19.826;2022-12-05T04:30:56;11.40;99.90
11965;DHT22;6042;41.326;19.826;2022-12-05T04:33:34;11.30;99.90
11965;DHT22;6042;41.326;19.826;2022-12-05T04:36:10;11.30;99.90
11965;DHT22;6042;41.326;19.826;2022-12-05T04:38:42;11.30;99.90
11965;DHT22;6042;41.326;19.826;2022-12-05T04:41:16;11.20;99.90
11965;DHT22;6042;41.326;19.826;2022-12-05T04:43:49;11.20;99.90
11965;DHT22;6042;41.326;19.826;2022-12-05T04:46:19;11.10;99.90
11965;DHT22;6042;41.326;19.826;2022-12-05T04:48:52;11.00;99.90
11965;DHT22;6042;41.326;19.826;2022-12-05T04:51:26;11.00;99.90
11965;DHT22;6042;41.326;19.826;2022-12-05T04:54:01;10.90;99.90
11965;DHT22;6042;41.326;19.826;2022-12-05T04:56:33;11.00;99.90
11965;DHT22;6042;41.326;19.826;2022-12-05T04:59:03;11.00;99.90
11965;DHT22;6042;41.326;19.826;2022-12-05T05:01:36;10.90;99.90
11965;DHT22;6042;41.326;19.826;2022-12-05T05:04:10;10.90;99.90
11965;DHT22;6042;41.326;19.826;2022-12-05T05:06:41;10.90;99.90
11965;DHT22;6042;41.326;19.826;2022-12-05T05:09:10;10.90;99.90
11965;DHT22;6042;41.326;19.826;2022-12-05T05:11:39;10.90;99.90
11965;DHT22;6042;41.326;19.826;2022-12-05T05:14:07;10.90;99.90
11965;DHT22;6042;41.326;19.826;2022-12-05T05:16:37;10.90;99.90
11965;DHT22;6042;41.326;19.826;2022-12-05T05:19:07;10.90;99.90
11965;DHT22;6042;41.326;19.826;2022-12-05T05:21:38;10.90;99.90
11965;DHT22;6042;41.326;19.826;2022-12-05T05:24:10;10.90;99.90
11965;DHT22;6042;41.326;19.826;2022-12-05T05:26:42;11.00;99.90
11965;DHT22;6042;41.326;19.826;2022-12-05T05:29:12;11.00;99.90
11965;DHT22;6042;41.326;19.826;2022-12-05T05:31:41;11.00;99.90
11965;DHT22;6042;41.326;19.826;2022-12-05T05:34:10;11.00;99.90
11965;DHT22;6042;41.326;19.826;2022-12-05T05:36:41;11.00;99.90
11965;DHT22;6042;41.326;19.826;2022-12-05T05:39:13;11.10;99.90
11965;DHT22;6042;41.326;19.826;2022-12-05T05:41:42;11.10;99.90
11965;DHT22;6042;41.326;19.826;2022-12-05T05:44:11;11.10;99.90
11965;DHT22;6042;41.326;19.826;2022-12-05T05:46:40;11.10;99.90
11965;DHT22;6042;41.326;19.826;2022-12-05T05:49:09;11.10;99.90
11965;DHT22;6042;41.326;19.826;2022-12-05T05:51:37;11.20;99.90
11965;DHT22;6042;41.326;19.826;2022-12-05T05:54:06;11.20;99.90
11965;DHT22;6042;41.326;19.826;2022-12-05T05:56:36;11.30;99.90
11965;DHT22;6042;41.326;19.826;2022-12-05T05:59:06;11.30;99.90
11965;DHT22;6042;41.326;19.826;2022-12-05T06:01:35;11.20;99.90
11965;DHT22;6042;41.326;19.826;2022-12-05T06:04:03;11.20;99.90
11965;DHT22;6042;41.326;19.826;2022-12-05T06:06:32;11.20;99.90
11965;DHT22;6042;41.326;19.826;2022-12-05T06:09:00;11.30;99.90
11965;DHT22;6042;41.326;19.826;2022-12-05T06:11:29;11.30;99.90
11965;DHT22;6042;41.326;19.826;2022-12-05T06:13:59;11.30;99.90
11965;DHT22;6042;41.326;19.826;2022-12-05T06:16:29;11.30;99.90
11965;DHT22;6042;41.326;19.826;2022-12-05T06:18:58;11.30;99.90
11965;DHT22;6042;41.326;19.826;2022-12-05T06:21:27;11.20;99.90
11965;DHT22;6042;41.326;19.826;2022-12-05T06:23:55;11.30;99.90
11965;DHT22;6042;41.326;19.826;2022-12-05T06:26:25;11.30;99.90
11965;DHT22;6042;41.326;19.826;2022-12-05T06:28:53;11.30;99.90
11965;DHT22;6042;41.326;19.826;2022-12-05T06:31:24;11.30;99.90
11965;DHT22;6042;41.326;19.826;2022-12-05T06:33:59;11.40;99.90
11965;DHT22;6042;41.326;19.826;2022-12-05T06:36:29;11.40;99.90
11965;DHT22;6042;41.326;19.826;2022-12-05T06:38:58;11.40;99.90
11965;DHT22;6042;41.326;19.826;2022-12-05T06:41:27;11.40;99.90
11965;DHT22;6042;41.326;19.826;2022-12-05T06:43:57;11.40;99.90
11965;DHT22;6042;41.326;19.826;2022-12-05T06:46:30;11.40;99.90
11965;DHT22;6042;41.326;19.826;2022-12-05T06:48:59;11.40;99.90
11965;DHT22;6042;41.326;19.826;2022-12-05T06:51:28;11.40;99.90
11965;DHT22;6042;41.326;19.826;2022-12-05T06:53:56;11.40;99.90
11965;DHT22;6042;41.326;19.826;2022-12-05T06:56:25;11.50;99.90
11965;DHT22;6042;41.326;19.826;2022-12-05T06:58:54;11.50;99.90
11965;DHT22;6042;41.326;19.826;2022-12-05T07:01:23;11.50;99.90
11965;DHT22;6042;41.326;19.826;2022-12-05T07:04:13;11.60;99.90
11965;DHT22;6042;41.326;19.826;2022-12-05T07:06:43;11.70;99.90
11965;DHT22;6042;41.326;19.826;2022-12-05T07:09:17;11.80;99.90
11965;DHT22;6042;41.326;19.826;2022-12-05T07:11:46;11.80;99.90
11965;DHT22;6042;41.326;19.826;2022-12-05T07:14:16;11.90;99.90
11965;DHT22;6042;41.326;19.826;2022-12-05T07:17:04;12.00;99.90
11965;DHT22;6042;41.326;19.826;2022-12-05T07:19:35;12.10;99.90
11965;DHT22;6042;41.326;19.826;2022-12-05T07:22:04;12.30;99.90
11965;DHT22;6042;41.326;19.826;2022-12-05T07:24:41;12.40;99.90
11965;DHT22;6042;41.326;19.826;2022-12-05T07:27:10;12.50;99.90
11965;DHT22;6042;41.326;19.826;2022-12-05T07:29:39;12.60;99.90
11965;DHT22;6042;41.326;19.826;2022-12-05T07:32:08;12.70;99.90
11965;DHT22;6042;41.326;19.826;2022-12-05T07:34:38;12.70;99.90
11965;DHT22;6042;41.326;19.826;2022-12-05T07:37:08;12.80;99.90
11965;DHT22;6042;41.326;19.826;2022-12-05T07:39:36;12.90;99.90
11965;DHT22;6042;41.326;19.826;2022-12-05T07:42:05;13.00;99.90
11965;DHT22;6042;41.326;19.826;2022-12-05T07:44:36;13.10;99.90
11965;DHT22;6042;41.326;19.826;2022-12-05T07:47:05;13.20;99.90
11965;DHT22;6042;41.326;19.826;2022-12-05T07:49:33;13.20;99.90
11965;DHT22;6042;41.326;19.826;2022-12-05T07:52:04;13.30;99.90
11965;DHT22;6042;41.326;19.826;2022-12-05T07:54:33;13.40;99.90
11965;DHT22;6042;41.326;19.826;2022-12-05T07:57:01;13.50;99.90
11965;DHT22;6042;41.326;19.826;2022-12-05T07:59:30;13.60;99.90
11965;DHT22;6042;41.326;19.826;2022-12-05T08:01:59;13.60;99.90
11965;DHT22;6042;41.326;19.826;2022-12-05T08:04:28;13.70;99.90
11965;DHT22;6042;41.326;19.826;2022-12-05T08:06:58;13.80;99.90
11965;DHT22;6042;41.326;19.826;2022-12-05T08:09:28;13.80;99.90
11965;DHT22;6042;41.326;19.826;2022-12-05T08:11:57;13.80;99.90
11965;DHT22;6042;41.326;19.826;2022-12-05T08:14:25;14.00;99.90
11965;DHT22;6042;41.326;19.826;2022-12-05T08:16:54;14.00;99.90
11965;DHT22;6042;41.326;19.826;2022-12-05T08:19:22;14.10;99.90
11965;DHT22;6042;41.326;19.826;2022-12-05T08:21:53;14.20;99.90
11965;DHT22;6042;41.326;19.826;2022-12-05T08:24:22;14.40;99.90
11965;DHT22;6042;41.326;19.826;2022-12-05T08:26:52;14.50;99.90
11965;DHT22;6042;41.326;19.826;2022-12-05T08:29:21;14.50;99.90
11965;DHT22;6042;41.326;19.826;2022-12-05T08:31:50;14.60;99.90
11965;DHT22;6042;41.326;19.826;2022-12-05T08:34:19;14.70;99.90
11965;DHT22;6042;41.326;19.826;2022-12-05T08:36:48;14.70;99.90
11965;DHT22;6042;41.326;19.826;2022-12-05T08:39:17;14.70;99.90
11965;DHT22;6042;41.326;19.826;2022-12-05T08:41:47;14.80;99.90
11965;DHT22;6042;41.326;19.826;2022-12-05T08:44:18;14.90;99.90
11965;DHT22;6042;41.326;19.826;2022-12-05T08:46:48;15.00;99.90
11965;DHT22;6042;41.326;19.826;2022-12-05T08:49:17;15.10;99.90
11965;DHT22;6042;41.326;19.826;2022-12-05T08:51:46;15.20;99.90
11965;DHT22;6042;41.326;19.826;2022-12-05T08:54:15;15.30;99.90
11965;DHT22;6042;41.326;19.826;2022-12-05T08:56:43;15.30;99.90
11965;DHT22;6042;41.326;19.826;2022-12-05T08:59:12;15.40;99.90
11965;DHT22;6042;41.326;19.826;2022-12-05T09:01:42;15.50;99.90
11965;DHT22;6042;41.326;19.826;2022-12-05T09:04:11;15.50;99.90
11965;DHT22;6042;41.326;19.826;2022-12-05T09:06:39;15.60;99.90
11965;DHT22;6042;41.326;19.826;2022-12-05T09:09:09;15.60;99.90
11965;DHT22;6042;41.326;19.826;2022-12-05T09:11:40;15.70;99.90
11965;DHT22;6042;41.326;19.826;2022-12-05T09:14:14;15.80;99.90
11965;DHT22;6042;41.326;19.826;2022-12-05T09:16:45;15.80;99.90
11965;DHT22;6042;41.326;19.826;2022-12-05T09:19:16;15.90;99.90
11965;DHT22;6042;41.326;19.826;2022-12-05T09:21:47;16.00;99.90
11965;DHT22;6042;41.326;19.826;2022-12-05T09:24:15;16.00;99.90
11965;DHT22;6042;41.326;19.826;2022-12-05T09:26:44;16.00;99.90
11965;DHT22;6042;41.326;19.826;2022-12-05T09:29:13;15.90;99.90
11965;DHT22;6042;41.326;19.826;2022-12-05T09:31:46;15.80;99.90
11965;DHT22;6042;41.326;19.826;2022-12-05T09:34:17;15.70;99.90
11965;DHT22;6042;41.326;19.826;2022-12-05T09:36:46;15.70;99.90
11965;DHT22;6042;41.326;19.826;2022-12-05T09:39:36;15.70;99.90
11965;DHT22;6042;41.326;19.826;2022-12-05T09:42:23;15.70;99.90
11965;DHT22;6042;41.326;19.826;2022-12-05T09:45:14;15.70;99.90
11965;DHT22;6042;41.326;19.826;2022-12-05T09:48:04;15.80;99.90
11965;DHT22;6042;41.326;19.826;2022-12-05T09:50:38;15.80;99.90
11965;DHT22;6042;41.326;19.826;2022-12-05T09:53:21;16.00;99.90
11965;DHT22;6042;41.326;19.826;2022-12-05T09:55:53;16.00;99.90
11965;DHT22;6042;41.326;19.826;2022-12-05T09:58:29;16.10;99.90
11965;DHT22;6042;41.326;19.826;2022-12-05T10:01:10;16.30;99.90
11965;DHT22;6042;41.326;19.826;2022-12-05T10:03:53;16.40;99.90
11965;DHT22;6042;41.326;19.826;2022-12-05T10:06:31;16.50;99.90
11965;DHT22;6042;41.326;19.826;2022-12-05T10:09:13;16.60;99.90
11965;DHT22;6042;41.326;19.826;2022-12-05T10:11:50;16.70;99.90
11965;DHT22;6042;41.326;19.826;2022-12-05T10:14:34;16.90;99.90
11965;DHT22;6042;41.326;19.826;2022-12-05T10:17:13;17.10;99.90
11965;DHT22;6042;41.326;19.826;2022-12-05T10:19:46;17.20;99.90
11965;DHT22;6042;41.326;19.826;2022-12-05T10:22:21;17.30;99.90
11965;DHT22;6042;41.326;19.826;2022-12-05T10:24:54;17.40;99.90
11965;DHT22;6042;41.326;19.826;2022-12-05T10:27:31;17.40;99.90
11965;DHT22;6042;41.326;19.826;2022-12-05T10:30:12;17.40;99.90
11965;DHT22;6042;41.326;19.826;2022-12-05T10:32:51;17.50;99.90
11965;DHT22;6042;41.326;19.826;2022-12-05T10:35:23;17.60;99.90
11965;DHT22;6042;41.326;19.826;2022-12-05T10:37:54;17.80;99.90
11965;DHT22;6042;41.326;19.826;2022-12-05T10:40:33;18.10;99.90
11965;DHT22;6042;41.326;19.826;2022-12-05T10:43:03;18.20;99.90
11965;DHT22;6042;41.326;19.826;2022-12-05T10:45:32;18.40;99.90
11965;DHT22;6042;41.326;19.826;2022-12-05T10:48:03;18.50;99.90
11965;DHT22;6042;41.326;19.826;2022-12-05T10:50:36;18.60;99.90
11965;DHT22;6042;41.326;19.826;2022-12-05T10:53:06;18.70;99.90
11965;DHT22;6042;41.326;19.826;2022-12-05T10:55:39;18.90;99.90
11965;DHT22;6042;41.326;19.826;2022-12-05T10:58:28;18.80;99.90
11965;DHT22;6042;41.326;19.826;2022-12-05T11:01:06;18.90;99.80
11965;DHT22;6042;41.326;19.826;2022-12-05T11:03:37;19.00;99.30
11965;DHT22;6042;41.326;19.826;2022-12-05T11:06:16;19.20;98.50
11965;DHT22;6042;41.326;19.826;2022-12-05T11:08:51;19.30;98.40
11965;DHT22;6042;41.326;19.826;2022-12-05T11:11:36;19.30;98.40
11965;DHT22;6042;41.326;19.826;2022-12-05T11:14:08;19.10;98.50
11965;DHT22;6042;41.326;19.826;2022-12-05T11:16:51;19.10;99.20
11965;DHT22;6042;41.326;19.826;2022-12-05T11:19:27;19.20;99.10
11965;DHT22;6042;41.326;19.826;2022-12-05T11:21:58;19.30;98.80
11965;DHT22;6042;41.326;19.826;2022-12-05T11:24:28;19.20;98.50
11965;DHT22;6042;41.326;19.826;2022-12-05T11:27:00;19.20;98.90
11965;DHT22;6042;41.326;19.826;2022-12-05T11:29:58;19.10;99.20
11965;DHT22;6042;41.326;19.826;2022-12-05T11:32:29;19.10;99.10
11965;DHT22;6042;41.326;19.826;2022-12-05T11:35:17;19.50;98.90
11965;DHT22;6042;41.326;19.826;2022-12-05T11:37:53;19.50;98.60
11965;DHT22;6042;41.326;19.826;2022-12-05T11:40:29;19.50;98.30
11965;DHT22;6042;41.326;19.826;2022-12-05T11:43:32;19.50;98.80
11965;DHT22;6042;41.326;19.826;2022-12-05T11:46:11;20.00;98.20
11965;DHT22;6042;41.326;19.826;2022-12-05T11:49:02;20.50;97.20
11965;DHT22;6042;41.326;19.826;2022-12-05T11:51:39;20.50;97.30
11965;DHT22;6042;41.326;19.826;2022-12-05T11:54:25;20.30;97.40
11965;DHT22;6042;41.326;19.826;2022-12-05T11:57:21;20.60;97.50
11965;DHT22;6042;41.326;19.826;2022-12-05T12:00:14;21.70;96.30
11965;DHT22;6042;41.326;19.826;2022-12-05T12:03:16;22.90;94.40
11965;DHT22;6042;41.326;19.826;2022-12-05T12:05:56;23.30;93.30
11965;DHT22;6042;41.326;19.826;2022-12-05T12:08:29;22.90;93.50
11965;DHT22;6042;41.326;19.826;2022-12-05T12:11:11;23.50;92.90
11965;DHT22;6042;41.326;19.826;2022-12-05T12:13:53;24.00;91.70
11965;DHT22;6042;41.326;19.826;2022-12-05T12:16:32;25.10;90.60
11965;DHT22;6042;41.326;19.826;2022-12-05T12:19:16;25.20;90.20
11965;DHT22;6042;41.326;19.826;2022-12-05T12:21:57;26.00;87.40
11965;DHT22;6042;41.326;19.826;2022-12-05T12:24:39;25.60;86.00
11965;DHT22;6042;41.326;19.826;2022-12-05T12:27:18;25.50;85.80
11965;DHT22;6042;41.326;19.826;2022-12-05T12:30:00;26.50;84.50
11965;DHT22;6042;41.326;19.826;2022-12-05T12:32:35;27.70;80.20
11965;DHT22;6042;41.326;19.826;2022-12-05T12:35:31;27.90;80.80
11965;DHT22;6042;41.326;19.826;2022-12-05T12:38:18;28.10;76.00
11965;DHT22;6042;41.326;19.826;2022-12-05T12:40:52;28.30;75.80
11965;DHT22;6042;41.326;19.826;2022-12-05T12:43:42;28.90;73.50
11965;DHT22;6042;41.326;19.826;2022-12-05T12:46:37;28.70;73.40
11965;DHT22;6042;41.326;19.826;2022-12-05T12:49:34;27.50;73.30
11965;DHT22;6042;41.326;19.826;2022-12-05T12:52:12;25.20;79.00
11965;DHT22;6042;41.326;19.826;2022-12-05T12:55:06;23.20;85.40
11965;DHT22;6042;41.326;19.826;2022-12-05T12:57:58;22.20;88.40
11965;DHT22;6042;41.326;19.826;2022-12-05T13:00:41;21.50;89.00
11965;DHT22;6042;41.326;19.826;2022-12-05T13:03:18;21.00;91.00
11965;DHT22;6042;41.326;19.826;2022-12-05T13:05:52;20.60;91.90
11965;DHT22;6042;41.326;19.826;2022-12-05T13:08:27;20.30;93.10
11965;DHT22;6042;41.326;19.826;2022-12-05T13:10:57;20.00;93.20
11965;DHT22;6042;41.326;19.826;2022-12-05T13:13:32;19.70;93.80
11965;DHT22;6042;41.326;19.826;2022-12-05T13:16:06;19.50;94.20
11965;DHT22;6042;41.326;19.826;2022-12-05T13:18:35;19.30;94.70
11965;DHT22;6042;41.326;19.826;2022-12-05T13:21:06;19.00;94.90
11965;DHT22;6042;41.326;19.826;2022-12-05T13:23:42;18.90;95.60
11965;DHT22;6042;41.326;19.826;2022-12-05T13:26:13;18.70;95.70
11965;DHT22;6042;41.326;19.826;2022-12-05T13:28:50;18.60;96.30
11965;DHT22;6042;41.326;19.826;2022-12-05T13:31:36;18.60;96.30
11965;DHT22;6042;41.326;19.826;2022-12-05T13:34:05;18.40;97.00
11965;DHT22;6042;41.326;19.826;2022-12-05T13:36:54;18.30;96.80
11965;DHT22;6042;41.326;19.826;2022-12-05T13:39:44;18.20;97.20
11965;DHT22;6042;41.326;19.826;2022-12-05T13:42:36;18.30;97.30
11965;DHT22;6042;41.326;19.826;2022-12-05T13:45:07;18.20;97.70
11965;DHT22;6042;41.326;19.826;2022-12-05T13:47:48;18.10;98.20
11965;DHT22;6042;41.326;19.826;2022-12-05T13:50:28;18.00;98.50
11965;DHT22;6042;41.326;19.826;2022-12-05T13:53:01;18.00;99.00
11965;DHT22;6042;41.326;19.826;2022-12-05T13:55:36;18.00;98.50
11965;DHT22;6042;41.326;19.826;2022-12-05T13:58:38;18.00;98.90
11965;DHT22;6042;41.326;19.826;2022-12-05T14:04:43;17.80;98.90
11965;DHT22;6042;41.326;19.826;2022-12-05T14:07:36;17.80;99.50
11965;DHT22;6042;41.326;19.826;2022-12-05T14:10:08;17.70;99.90
11965;DHT22;6042;41.326;19.826;2022-12-05T14:12:46;17.70;99.90
11965;DHT22;6042;41.326;19.826;2022-12-05T14:15:27;17.60;99.90
11965;DHT22;6042;41.326;19.826;2022-12-05T14:18:00;17.50;99.90
11965;DHT22;6042;41.326;19.826;2022-12-05T14:26:47;17.30;99.90
11965;DHT22;6042;41.326;19.826;2022-12-05T14:29:36;17.20;99.90
11965;DHT22;6042;41.326;19.826;2022-12-05T14:32:15;17.20;99.90
11965;DHT22;6042;41.326;19.826;2022-12-05T14:34:54;17.10;99.90
11965;DHT22;6042;41.326;19.826;2022-12-05T14:37:31;17.10;99.90
11965;DHT22;6042;41.326;19.826;2022-12-05T14:40:02;17.10;99.90
11965;DHT22;6042;41.326;19.826;2022-12-05T14:42:36;16.90;99.90
11965;DHT22;6042;41.326;19.826;2022-12-05T14:45:23;17.00;99.90
11965;DHT22;6042;41.326;19.826;2022-12-05T14:47:56;17.00;99.90
11965;DHT22;6042;41.326;19.826;2022-12-05T14:50:49;16.90;99.90
11965;DHT22;6042;41.326;19.826;2022-12-05T14:53:26;16.80;99.90
11965;DHT22;6042;41.326;19.826;2022-12-05T14:56:08;16.70;99.90
11965;DHT22;6042;41.326;19.826;2022-12-05T14:58:43;16.70;99.90
11965;DHT22;6042;41.326;19.826;2022-12-05T15:01:17;16.60;99.90
11965;DHT22;6042;41.326;19.826;2022-12-05T15:04:04;16.50;99.90
11965;DHT22;6042;41.326;19.826;2022-12-05T15:06:36;16.40;99.90
11965;DHT22;6042;41.326;19.826;2022-12-05T15:09:32;16.40;99.90
11965;DHT22;6042;41.326;19.826;2022-12-05T15:12:11;16.30;99.90
11965;DHT22;6042;41.326;19.826;2022-12-05T15:14:45;16.10;99.90
11965;DHT22;6042;41.326;19.826;2022-12-05T15:17:18;16.00;99.90
11965;DHT22;6042;41.326;19.826;2022-12-05T15:19:52;16.00;99.90
11965;DHT22;6042;41.326;19.826;2022-12-05T15:22:26;15.90;99.90
11965;DHT22;6042;41.326;19.826;2022-12-05T15:24:57;15.90;99.90
11965;DHT22;6042;41.326;19.826;2022-12-05T15:27:51;15.80;99.90
11965;DHT22;6042;41.326;19.826;2022-12-05T15:30:20;15.70;99.90
11965;DHT22;6042;41.326;19.826;2022-12-05T15:32:49;15.60;99.90
11965;DHT22;6042;41.326;19.826;2022-12-05T15:35:27;15.50;99.90
11965;DHT22;6042;41.326;19.826;2022-12-05T15:37:59;15.40;99.90
11965;DHT22;6042;41.326;19.826;2022-12-05T15:40:33;15.20;99.90
11965;DHT22;6042;41.326;19.826;2022-12-05T15:43:26;15.00;99.90
11965;DHT22;6042;41.326;19.826;2022-12-05T15:46:16;14.90;99.90
11965;DHT22;6042;41.326;19.826;2022-12-05T15:48:47;14.90;99.90
11965;DHT22;6042;41.326;19.826;2022-12-05T15:51:16;14.90;99.90
11965;DHT22;6042;41.326;19.826;2022-12-05T15:53:48;14.90;99.90
11965;DHT22;6042;41.326;19.826;2022-12-05T15:56:22;14.80;99.90
11965;DHT22;6042;41.326;19.826;2022-12-05T15:58:57;14.80;99.90
11965;DHT22;6042;41.326;19.826;2022-12-05T16:01:28;14.70;99.90
11965;DHT22;6042;41.326;19.826;2022-12-05T16:04:01;14.70;99.90
11965;DHT22;6042;41.326;19.826;2022-12-05T16:06:32;14.60;99.90
11965;DHT22;6042;41.326;19.826;2022-12-05T16:09:06;14.50;99.90
11965;DHT22;6042;41.326;19.826;2022-12-05T16:11:42;14.40;99.90
11965;DHT22;6042;41.326;19.826;2022-12-05T16:14:17;14.20;99.90
11965;DHT22;6042;41.326;19.826;2022-12-05T16:17:08;14.10;99.90
11965;DHT22;6042;41.326;19.826;2022-12-05T16:19:39;14.00;99.90
11965;DHT22;6042;41.326;19.826;2022-12-05T16:22:18;13.80;99.90
11965;DHT22;6042;41.326;19.826;2022-12-05T16:24:54;13.80;99.90
11965;DHT22;6042;41.326;19.826;2022-12-05T16:27:25;13.80;99.90
11965;DHT22;6042;41.326;19.826;2022-12-05T16:30:17;13.80;99.90